createdAt,value
2022-08-20T00:00:06.511Z,97.80
2022-08-20T00:01:13.222Z,97.91
2022-08-20T00:02:06.544Z,97.80
2022-08-20T00:03:06.479Z,97.71
2022-08-20T00:04:06.866Z,97.50
2022-08-20T00:05:06.446Z,97.40
2022-08-20T00:06:09.331Z,97.30
2022-08-20T00:07:06.457Z,97.10
2022-08-20T00:08:06.401Z,96.89
2022-08-20T00:09:06.479Z,96.69
2022-08-20T00:10:06.385Z,96.80
2022-08-20T00:11:09.239Z,96.80
2022-08-20T00:12:06.365Z,97.10
2022-08-20T00:13:06.379Z,97.40
2022-08-20T00:14:06.376Z,97.85
2022-08-20T00:15:06.318Z,97.85
2022-08-20T00:16:13.229Z,97.75
2022-08-20T00:17:06.310Z,97.75
2022-08-20T00:18:06.257Z,98.01
2022-08-20T00:19:06.284Z,98.11
2022-08-20T00:20:06.288Z,98.11
2022-08-20T00:21:13.219Z,98.01
2022-08-20T00:22:06.224Z,98.01
2022-08-20T00:23:10.230Z,98.01
2022-08-20T00:24:06.251Z,97.80
2022-08-20T00:25:06.215Z,97.60
2022-08-20T00:26:08.723Z,97.71
2022-08-20T00:27:06.153Z,97.60
2022-08-20T00:28:06.132Z,97.50
2022-08-20T00:29:06.127Z,97.30
2022-08-20T00:30:06.133Z,97.10
2022-08-20T00:31:12.724Z,96.95
2022-08-20T00:32:06.108Z,96.75
2022-08-20T00:33:06.078Z,96.75
2022-08-20T00:34:06.070Z,96.65
2022-08-20T00:35:06.048Z,96.55
2022-08-20T00:36:11.303Z,96.55
2022-08-20T00:37:06.033Z,96.59
2022-08-20T00:38:06.003Z,96.80
2022-08-20T00:39:05.991Z,96.80
2022-08-20T00:40:05.982Z,96.69
2022-08-20T00:41:09.290Z,96.69
2022-08-20T00:42:05.955Z,97.10
2022-08-20T00:43:05.934Z,97.10
2022-08-20T00:44:05.915Z,97.00
2022-08-20T00:45:05.937Z,96.89
2022-08-20T00:46:12.742Z,97.00
2022-08-20T00:47:05.879Z,97.20
2022-08-20T00:48:05.854Z,97.40
2022-08-20T00:49:05.874Z,97.60
2022-08-20T00:50:05.879Z,97.60
2022-08-20T00:51:12.734Z,97.60
2022-08-20T00:52:05.805Z,98.05
2022-08-20T00:53:05.804Z,98.36
2022-08-20T00:54:05.794Z,98.25
2022-08-20T00:55:05.771Z,98.36
2022-08-20T00:56:11.269Z,98.25
2022-08-20T00:57:05.770Z,98.46
2022-08-20T00:58:05.964Z,98.66
2022-08-20T00:59:05.709Z,98.76
2022-08-20T01:00:05.698Z,98.76
2022-08-20T01:01:08.755Z,98.76
2022-08-20T01:02:05.755Z,98.76
2022-08-20T01:03:05.672Z,98.66
2022-08-20T01:04:05.654Z,98.46
2022-08-20T01:05:05.665Z,98.66
2022-08-20T01:06:12.231Z,98.86
2022-08-20T01:07:05.643Z,98.96
2022-08-20T01:08:05.595Z,99.11
2022-08-20T01:09:05.593Z,99.16
2022-08-20T01:10:05.597Z,99.07
2022-08-20T01:11:12.239Z,98.96
2022-08-20T01:12:05.538Z,98.86
2022-08-20T01:13:05.526Z,98.96
2022-08-20T01:14:05.524Z,98.86
2022-08-20T01:15:05.531Z,98.66
2022-08-20T01:16:08.769Z,98.66
2022-08-20T01:17:05.510Z,98.66
2022-08-20T01:18:05.456Z,98.56
2022-08-20T01:19:05.442Z,98.41
2022-08-20T01:20:05.442Z,98.31
2022-08-20T01:21:11.052Z,98.21
2022-08-20T01:22:05.429Z,98.11
2022-08-20T01:23:05.434Z,98.01
2022-08-20T01:24:05.375Z,98.01
2022-08-20T01:25:05.369Z,98.01
2022-08-20T01:26:08.231Z,97.91
2022-08-20T01:27:05.351Z,97.71
2022-08-20T01:28:05.362Z,97.71
2022-08-20T01:29:05.309Z,97.60
2022-08-20T01:30:06.091Z,97.40
2022-08-20T01:31:12.247Z,97.20
2022-08-20T01:32:05.275Z,96.89
2022-08-20T01:33:05.299Z,96.89
2022-08-20T01:34:05.253Z,97.20
2022-08-20T01:35:05.231Z,97.00
2022-08-20T01:36:12.547Z,96.80
2022-08-20T01:37:05.237Z,96.89
2022-08-20T01:38:05.223Z,96.89
2022-08-20T01:39:05.196Z,97.00
2022-08-20T01:40:05.218Z,96.89
2022-08-20T01:41:09.624Z,96.89
2022-08-20T01:42:05.131Z,96.80
2022-08-20T01:43:05.148Z,97.10
2022-08-20T01:44:05.106Z,97.30
2022-08-20T01:45:05.126Z,97.40
2022-08-20T01:46:06.315Z,97.40
2022-08-20T01:47:05.079Z,97.50
2022-08-20T01:48:05.058Z,97.60
2022-08-20T01:49:05.065Z,97.80
2022-08-20T01:50:05.061Z,97.80
2022-08-20T01:51:11.764Z,97.60
2022-08-20T01:52:05.006Z,97.40
2022-08-20T01:53:04.987Z,97.40
2022-08-20T01:54:04.986Z,97.30
2022-08-20T01:55:04.994Z,97.20
2022-08-20T01:56:11.761Z,97.20
2022-08-20T01:57:04.959Z,97.20
2022-08-20T01:58:04.922Z,97.10
2022-08-20T01:59:04.917Z,97.20
2022-08-20T02:00:04.896Z,97.30
2022-08-20T02:01:06.350Z,97.30
2022-08-20T02:02:04.876Z,97.50
2022-08-20T02:03:04.854Z,97.60
2022-08-20T02:04:04.871Z,97.71
2022-08-20T02:05:04.828Z,97.60
2022-08-20T02:06:11.782Z,97.85
2022-08-20T02:07:04.806Z,98.16
2022-08-20T02:08:04.823Z,98.36
2022-08-20T02:09:04.790Z,98.46
2022-08-20T02:10:04.755Z,98.76
2022-08-20T02:11:11.290Z,98.86
2022-08-20T02:12:04.761Z,99.07
2022-08-20T02:13:04.739Z,99.16
2022-08-20T02:14:04.734Z,99.32
2022-08-20T02:15:04.723Z,99.32
2022-08-20T02:16:09.140Z,99.41
2022-08-20T02:17:04.661Z,99.41
2022-08-20T02:18:04.645Z,99.52
2022-08-20T02:19:04.639Z,99.72
2022-08-20T02:20:04.646Z,99.72
2022-08-20T02:21:06.320Z,99.52
2022-08-20T02:22:04.613Z,99.52
2022-08-20T02:23:04.576Z,99.32
2022-08-20T02:24:04.583Z,99.21
2022-08-20T02:25:04.588Z,99.01
2022-08-20T02:26:06.334Z,98.96
2022-08-20T02:27:04.531Z,99.07
2022-08-20T02:28:04.548Z,99.07
2022-08-20T02:29:04.504Z,98.86
2022-08-20T02:30:04.496Z,98.76
2022-08-20T02:31:07.328Z,98.66
2022-08-20T02:32:32.223Z,98.56
2022-08-20T02:33:04.473Z,98.25
2022-08-20T02:34:18.486Z,98.36
2022-08-20T02:35:04.412Z,98.36
2022-08-20T02:36:11.261Z,98.36
2022-08-20T02:37:04.389Z,98.36
2022-08-20T02:38:04.395Z,98.46
2022-08-20T02:39:04.382Z,98.31
2022-08-20T02:40:04.405Z,98.01
2022-08-20T02:41:12.315Z,98.01
2022-08-20T02:42:04.324Z,97.91
2022-08-20T02:43:04.318Z,97.80
2022-08-20T02:44:04.310Z,97.71
2022-08-20T02:45:04.272Z,97.91
2022-08-20T02:46:09.812Z,97.71
2022-08-20T02:47:04.251Z,97.71
2022-08-20T02:48:04.261Z,97.40
2022-08-20T02:49:04.245Z,97.10
2022-08-20T02:50:04.209Z,96.69
2022-08-20T02:51:06.330Z,96.69
2022-08-20T02:52:04.191Z,96.59
2022-08-20T02:53:04.173Z,96.69
2022-08-20T02:54:04.181Z,96.89
2022-08-20T02:55:04.149Z,97.00
2022-08-20T02:56:07.335Z,97.10
2022-08-20T02:57:04.117Z,97.00
2022-08-20T02:58:04.113Z,96.89
2022-08-20T02:59:04.121Z,96.89
2022-08-20T03:00:04.103Z,96.80
2022-08-20T03:01:10.805Z,96.69
2022-08-20T03:02:04.048Z,96.89
2022-08-20T03:03:04.064Z,96.69
2022-08-20T03:04:04.030Z,96.80
2022-08-20T03:05:04.026Z,96.80
2022-08-20T03:06:11.593Z,96.89
2022-08-20T03:07:03.980Z,96.80
2022-08-20T03:08:03.969Z,96.89
2022-08-20T03:09:03.957Z,96.80
2022-08-20T03:10:03.950Z,96.89
2022-08-20T03:11:07.835Z,97.00
2022-08-20T03:12:03.917Z,97.00
2022-08-20T03:13:03.922Z,97.20
2022-08-20T03:14:03.922Z,97.10
2022-08-20T03:15:03.885Z,97.10
2022-08-20T03:16:07.842Z,97.20
2022-08-20T03:17:03.853Z,97.10
2022-08-20T03:18:03.851Z,97.00
2022-08-20T03:19:03.821Z,97.10
2022-08-20T03:20:03.817Z,97.20
2022-08-20T03:21:05.338Z,97.40
2022-08-20T03:22:03.781Z,97.20
2022-08-20T03:23:03.777Z,97.10
2022-08-20T03:24:03.762Z,97.10
2022-08-20T03:25:03.774Z,96.89
2022-08-20T03:26:06.353Z,96.69
2022-08-20T03:27:03.704Z,96.69
2022-08-20T03:28:03.724Z,96.69
2022-08-20T03:29:03.679Z,96.84
2022-08-20T03:30:03.722Z,97.05
2022-08-20T03:31:07.341Z,97.14
2022-08-20T03:32:07.553Z,97.25
2022-08-20T03:33:03.636Z,97.34
2022-08-20T03:34:03.645Z,97.25
2022-08-20T03:35:03.605Z,97.45
2022-08-20T03:36:08.852Z,97.60
2022-08-20T03:37:03.603Z,97.40
2022-08-20T03:38:03.570Z,97.20
2022-08-20T03:39:03.578Z,97.20
2022-08-20T03:40:03.643Z,97.40
2022-08-20T03:41:07.351Z,97.40
2022-08-20T03:42:03.569Z,97.30
2022-08-20T03:43:03.504Z,97.00
2022-08-20T03:44:03.509Z,96.89
2022-08-20T03:45:03.482Z,97.00
2022-08-20T03:46:22.041Z,97.00
2022-08-20T03:47:03.451Z,97.20
2022-08-20T03:48:03.438Z,96.89
2022-08-20T03:49:03.453Z,96.59
2022-08-20T03:50:03.407Z,96.74
2022-08-20T03:51:03.389Z,96.44
2022-08-20T03:52:03.404Z,96.64
2022-08-20T03:53:03.373Z,96.64
2022-08-20T03:54:03.376Z,96.84
2022-08-20T03:55:03.338Z,97.05
2022-08-20T03:56:03.332Z,96.84
2022-08-20T03:57:03.820Z,96.64
2022-08-20T03:58:03.310Z,96.64
2022-08-20T03:59:03.308Z,96.44
2022-08-20T04:00:03.266Z,96.34
2022-08-20T04:01:03.322Z,96.34
2022-08-20T04:02:03.274Z,96.34
2022-08-20T04:03:03.251Z,95.63
2022-08-20T04:04:03.244Z,95.73
2022-08-20T04:05:03.250Z,95.63
2022-08-20T04:06:03.189Z,95.63
2022-08-20T04:07:03.217Z,95.83
2022-08-20T04:08:03.659Z,96.13
2022-08-20T04:09:03.150Z,96.23
2022-08-20T04:10:03.140Z,96.34
2022-08-20T04:11:03.126Z,96.34
2022-08-20T04:12:03.136Z,96.13
2022-08-20T04:13:03.109Z,95.93
2022-08-20T04:14:03.080Z,95.93
2022-08-20T04:15:03.088Z,95.98
2022-08-20T04:16:14.893Z,95.98
2022-08-20T04:17:03.035Z,95.98
2022-08-20T04:18:03.045Z,95.78
2022-08-20T04:19:03.061Z,95.68
2022-08-20T04:20:03.000Z,95.68
2022-08-20T04:21:02.989Z,96.29
2022-08-20T04:22:02.977Z,96.59
2022-08-20T04:23:03.001Z,96.69
2022-08-20T04:24:02.980Z,96.59
2022-08-20T04:25:02.935Z,96.59
2022-08-20T04:26:02.916Z,96.54
2022-08-20T04:27:03.122Z,96.39
2022-08-20T04:28:02.915Z,96.29
2022-08-20T04:29:02.900Z,96.34
2022-08-20T04:30:02.855Z,96.34
2022-08-20T04:31:02.852Z,96.44
2022-08-20T04:32:05.994Z,96.44
2022-08-20T04:33:02.833Z,96.23
2022-08-20T04:34:02.840Z,96.23
2022-08-20T04:35:02.813Z,96.44
2022-08-20T04:36:02.795Z,96.74
2022-08-20T04:37:02.767Z,96.54
2022-08-20T04:38:02.762Z,96.64
2022-08-20T04:39:02.812Z,96.94
2022-08-20T04:40:02.831Z,97.49
2022-08-20T04:41:02.706Z,97.80
2022-08-20T04:42:02.699Z,98.20
2022-08-20T04:43:02.679Z,98.50
2022-08-20T04:44:02.674Z,98.91
2022-08-20T04:45:02.682Z,98.96
2022-08-20T04:46:02.671Z,99.11
2022-08-20T04:47:02.632Z,99.11
2022-08-20T04:48:02.637Z,99.01
2022-08-20T04:49:02.609Z,98.81
2022-08-20T04:50:02.613Z,98.61
2022-08-20T04:51:02.594Z,98.40
2022-08-20T04:52:02.568Z,98.50
2022-08-20T04:53:02.562Z,98.40
2022-08-20T04:54:02.587Z,98.40
2022-08-20T04:55:02.548Z,98.45
2022-08-20T04:56:02.590Z,98.65
2022-08-20T04:57:02.495Z,98.45
2022-08-20T04:58:02.526Z,98.55
2022-08-20T04:59:02.472Z,98.71
2022-08-20T05:00:02.468Z,98.50
2022-08-20T05:01:02.505Z,98.40
2022-08-20T05:02:02.424Z,98.40
2022-08-20T05:03:02.409Z,98.40
2022-08-20T05:04:02.431Z,98.30
2022-08-20T05:05:02.393Z,98.20
2022-08-20T05:06:02.410Z,98.20
2022-08-20T05:07:02.379Z,98.00
2022-08-20T05:08:02.368Z,97.90
2022-08-20T05:09:02.381Z,97.80
2022-08-20T05:10:02.332Z,97.90
2022-08-20T05:11:34.972Z,98.00
2022-08-20T05:12:02.360Z,97.69
2022-08-20T05:13:02.293Z,97.90
2022-08-20T05:14:02.280Z,97.90
2022-08-20T05:15:02.244Z,98.20
2022-08-20T05:16:02.271Z,98.50
2022-08-20T05:17:02.220Z,98.75
2022-08-20T05:18:02.278Z,98.75
2022-08-20T05:19:02.201Z,98.85
2022-08-20T05:20:02.188Z,98.85
2022-08-20T05:21:02.191Z,99.05
2022-08-20T05:22:02.191Z,98.96
2022-08-20T05:23:02.140Z,98.96
2022-08-20T05:24:02.154Z,98.45
2022-08-20T05:25:02.120Z,98.45
2022-08-20T05:26:02.114Z,98.45
2022-08-20T05:27:02.267Z,98.45
2022-08-20T05:28:02.074Z,98.65
2022-08-20T05:29:02.062Z,98.55
2022-08-20T05:30:02.043Z,98.55
2022-08-20T05:31:02.034Z,98.75
2022-08-20T05:32:02.047Z,98.96
2022-08-20T05:33:02.012Z,99.26
2022-08-20T05:34:01.992Z,99.36
2022-08-20T05:35:01.980Z,99.36
2022-08-20T05:36:02.049Z,99.36
2022-08-20T05:37:01.946Z,99.26
2022-08-20T05:38:01.934Z,98.55
2022-08-20T05:39:01.958Z,97.90
2022-08-20T05:40:02.500Z,97.09
2022-08-20T05:41:01.925Z,96.69
2022-08-20T05:42:01.909Z,96.78
2022-08-20T05:43:01.880Z,96.98
2022-08-20T05:44:01.976Z,97.09
2022-08-20T05:45:01.843Z,96.98
2022-08-20T05:46:01.848Z,96.89
2022-08-20T05:47:01.831Z,96.69
2022-08-20T05:48:03.417Z,96.64
2022-08-20T05:49:02.168Z,96.74
2022-08-20T05:50:01.814Z,96.74
2022-08-20T05:51:01.774Z,96.54
2022-08-20T05:52:01.778Z,96.64
2022-08-20T05:53:01.735Z,96.84
2022-08-20T05:54:01.729Z,97.05
2022-08-20T05:55:01.739Z,96.84
2022-08-20T05:56:01.699Z,96.74
2022-08-20T05:57:01.729Z,96.74
2022-08-20T05:58:01.803Z,96.94
2022-08-20T05:59:01.667Z,96.94
2022-08-20T06:00:01.668Z,96.94
2022-08-20T06:01:01.719Z,96.94
2022-08-20T06:02:01.640Z,96.74
2022-08-20T06:03:01.606Z,96.94
2022-08-20T06:04:01.633Z,96.84
2022-08-20T06:05:01.606Z,96.84
2022-08-20T06:06:01.568Z,96.74
2022-08-20T06:07:01.566Z,96.94
2022-08-20T06:08:07.795Z,96.44
2022-08-20T06:09:01.531Z,96.23
2022-08-20T06:10:01.538Z,96.44
2022-08-20T06:11:01.498Z,96.54
2022-08-20T06:12:01.487Z,96.84
2022-08-20T06:13:01.475Z,97.05
2022-08-20T06:14:01.456Z,96.84
2022-08-20T06:15:01.482Z,96.84
2022-08-20T06:16:01.433Z,96.94
2022-08-20T06:17:01.414Z,97.10
2022-08-20T06:18:01.565Z,97.00
2022-08-20T06:19:02.791Z,96.59
2022-08-20T06:20:01.392Z,96.39
2022-08-20T06:21:01.367Z,96.59
2022-08-20T06:22:01.345Z,96.69
2022-08-20T06:23:01.333Z,97.10
2022-08-20T06:24:02.309Z,97.40
2022-08-20T06:25:01.330Z,97.65
2022-08-20T06:26:01.314Z,97.65
2022-08-20T06:27:01.288Z,97.45
2022-08-20T06:28:01.267Z,96.64
2022-08-20T06:29:01.258Z,97.05
2022-08-20T06:30:01.257Z,96.84
2022-08-20T06:31:01.233Z,97.05
2022-08-20T06:32:01.219Z,97.30
2022-08-20T06:33:01.206Z,97.40
2022-08-20T06:34:01.209Z,97.30
2022-08-20T06:35:01.198Z,97.20
2022-08-20T06:36:01.177Z,97.60
2022-08-20T06:37:01.184Z,97.80
2022-08-20T06:38:01.140Z,97.80
2022-08-20T06:39:01.110Z,97.71
2022-08-20T06:40:01.227Z,97.60
2022-08-20T06:41:01.093Z,97.40
2022-08-20T06:42:01.095Z,97.40
2022-08-20T06:43:01.093Z,97.56
2022-08-20T06:44:01.048Z,97.36
2022-08-20T06:45:01.070Z,96.55
2022-08-20T06:46:01.016Z,96.04
2022-08-20T06:47:01.029Z,95.84
2022-08-20T06:48:01.002Z,95.58
2022-08-20T06:49:00.978Z,96.09
2022-08-20T06:50:00.990Z,95.89
2022-08-20T06:51:00.955Z,96.09
2022-08-20T06:52:00.945Z,96.39
2022-08-20T06:53:00.928Z,96.59
2022-08-20T06:54:00.937Z,96.69
2022-08-20T06:55:00.917Z,96.29
2022-08-20T06:56:00.884Z,96.69
2022-08-20T06:57:00.906Z,96.19
2022-08-20T06:58:00.857Z,96.09
2022-08-20T06:59:00.842Z,96.29
2022-08-20T07:00:00.849Z,96.09
2022-08-20T07:01:08.675Z,96.19
2022-08-20T07:02:00.813Z,95.78
2022-08-20T07:03:00.801Z,95.58
2022-08-20T07:04:00.785Z,95.98
2022-08-20T07:05:00.828Z,95.78
2022-08-20T07:06:00.777Z,95.68
2022-08-20T07:07:00.751Z,95.98
2022-08-20T07:08:00.754Z,95.84
2022-08-20T07:09:00.715Z,95.84
2022-08-20T07:10:00.730Z,95.74
2022-08-20T07:11:00.717Z,95.34
2022-08-20T07:12:00.721Z,95.43
2022-08-20T07:13:00.672Z,95.34
2022-08-20T07:14:00.655Z,95.43
2022-08-20T07:15:00.636Z,95.43
2022-08-20T07:16:00.653Z,95.34
2022-08-20T07:17:00.781Z,96.04
2022-08-20T07:18:01.630Z,95.94
2022-08-20T07:19:00.587Z,95.94
2022-08-20T07:20:00.557Z,96.04
2022-08-20T07:21:00.564Z,96.50
2022-08-20T07:22:00.581Z,96.40
2022-08-20T07:23:00.524Z,95.79
2022-08-20T07:24:00.507Z,95.70
2022-08-20T07:25:00.497Z,95.90
2022-08-20T07:26:00.471Z,96.20
2022-08-20T07:27:00.497Z,96.10
2022-08-20T07:28:00.459Z,96.00
2022-08-20T07:29:00.473Z,96.20
2022-08-20T07:30:00.428Z,96.40
2022-08-20T07:31:00.441Z,96.40
2022-08-20T07:32:00.426Z,96.30
2022-08-20T07:33:00.406Z,96.20
2022-08-20T07:34:00.404Z,96.30
2022-08-20T07:35:00.370Z,96.30
2022-08-20T07:36:00.338Z,96.10
2022-08-20T07:37:00.363Z,95.90
2022-08-20T07:38:00.338Z,96.00
2022-08-20T07:39:00.303Z,95.79
2022-08-20T07:40:00.381Z,95.79
2022-08-20T07:41:00.274Z,95.90
2022-08-20T07:42:00.265Z,95.79
2022-08-20T07:43:00.272Z,95.59
2022-08-20T07:44:00.240Z,95.49
2022-08-20T07:45:00.221Z,95.49
2022-08-20T07:46:00.213Z,95.19
2022-08-20T07:47:00.232Z,94.99
2022-08-20T07:48:00.183Z,94.89
2022-08-20T07:49:00.175Z,94.28
2022-08-20T07:50:00.187Z,94.68
2022-08-20T07:51:00.146Z,95.39
2022-08-20T07:52:00.132Z,96.00
2022-08-20T07:53:00.120Z,96.10
2022-08-20T07:54:00.209Z,96.10
2022-08-20T07:55:00.116Z,96.00
2022-08-20T07:56:00.078Z,96.20
2022-08-20T07:57:00.078Z,96.50
2022-08-20T07:58:00.054Z,96.60
2022-08-20T07:59:00.061Z,96.20
2022-08-20T08:00:00.017Z,95.85
2022-08-20T08:01:00.110Z,95.85
2022-08-20T08:02:00.025Z,96.05
2022-08-20T08:02:59.993Z,96.36
2022-08-20T08:03:59.973Z,96.56
2022-08-20T08:04:59.980Z,96.56
2022-08-20T08:05:59.957Z,96.05
2022-08-20T08:06:59.950Z,95.95
2022-08-20T08:07:59.963Z,95.75
2022-08-20T08:08:59.924Z,95.25
2022-08-20T08:09:59.932Z,94.74
2022-08-20T08:10:59.870Z,94.84
2022-08-20T08:11:59.892Z,95.04
2022-08-20T08:12:59.853Z,95.04
2022-08-20T08:13:59.875Z,94.94
2022-08-20T08:14:59.831Z,95.25
2022-08-20T08:15:59.819Z,95.55
2022-08-20T08:16:59.791Z,96.05
2022-08-20T08:17:59.786Z,95.95
2022-08-20T08:18:59.780Z,95.55
2022-08-20T08:19:59.780Z,95.40
2022-08-20T08:20:59.746Z,95.20
2022-08-20T08:21:59.733Z,95.50
2022-08-20T08:22:59.743Z,95.50
2022-08-20T08:23:59.718Z,95.30
2022-08-20T08:24:59.720Z,95.10
2022-08-20T08:25:59.678Z,94.80
2022-08-20T08:26:59.706Z,94.59
2022-08-20T08:27:59.719Z,95.10
2022-08-20T08:28:59.636Z,95.04
2022-08-20T08:29:59.620Z,94.94
2022-08-20T08:30:59.608Z,94.84
2022-08-20T08:31:59.639Z,94.54
2022-08-20T08:32:59.586Z,94.74
2022-08-20T08:33:59.580Z,94.34
2022-08-20T08:34:59.559Z,94.44
2022-08-20T08:35:59.550Z,94.54
2022-08-20T08:36:59.558Z,94.94
2022-08-20T08:37:59.519Z,95.35
2022-08-20T08:38:59.521Z,95.45
2022-08-20T08:39:59.616Z,95.35
2022-08-20T08:40:59.974Z,95.14
2022-08-20T08:41:59.521Z,95.25
2022-08-20T08:42:59.455Z,95.45
2022-08-20T08:43:59.438Z,95.45
2022-08-20T08:44:59.457Z,95.55
2022-08-20T08:45:59.411Z,95.55
2022-08-20T08:46:59.433Z,95.40
2022-08-20T08:47:59.409Z,95.61
2022-08-20T08:48:59.391Z,95.40
2022-08-20T08:49:59.359Z,95.00
2022-08-20T08:50:59.351Z,94.39
2022-08-20T08:51:59.370Z,93.89
2022-08-20T08:52:59.314Z,93.79
2022-08-20T08:54:02.135Z,93.79
2022-08-20T08:54:59.325Z,93.79
2022-08-20T08:55:59.291Z,94.19
2022-08-20T08:56:59.265Z,94.39
2022-08-20T08:57:59.275Z,94.19
2022-08-20T08:58:59.244Z,94.49
2022-08-20T09:00:04.469Z,94.90
2022-08-20T09:01:04.816Z,94.39
2022-08-20T09:01:59.329Z,94.29
2022-08-20T09:02:59.660Z,94.39
2022-08-20T09:03:59.169Z,93.99
2022-08-20T09:04:59.193Z,93.95
2022-08-20T09:05:59.148Z,93.89
2022-08-20T09:06:59.307Z,93.74
2022-08-20T09:07:59.145Z,93.34
2022-08-20T09:08:59.108Z,93.44
2022-08-20T09:09:59.100Z,93.14
2022-08-20T09:10:59.085Z,92.33
2022-08-20T09:11:59.101Z,93.04
2022-08-20T09:12:59.212Z,93.34
2022-08-20T09:13:59.074Z,92.94
2022-08-20T09:14:59.038Z,92.63
2022-08-20T09:15:59.031Z,93.14
2022-08-20T09:16:59.117Z,92.63
2022-08-20T09:17:59.025Z,92.43
2022-08-20T09:18:58.973Z,92.54
2022-08-20T09:19:58.968Z,92.94
2022-08-20T09:20:58.943Z,93.04
2022-08-20T09:21:58.932Z,93.14
2022-08-20T09:22:59.148Z,93.74
2022-08-20T09:23:58.917Z,94.05
2022-08-20T09:24:58.954Z,94.65
2022-08-20T09:25:58.902Z,94.85
2022-08-20T09:26:58.902Z,95.15
2022-08-20T09:27:58.856Z,94.95
2022-08-20T09:28:58.836Z,93.85
2022-08-20T09:29:58.830Z,94.35
2022-08-20T09:30:58.836Z,94.35
2022-08-20T09:31:58.828Z,94.25
2022-08-20T09:32:58.834Z,93.65
2022-08-20T09:33:58.809Z,93.65
2022-08-20T09:34:58.784Z,93.65
2022-08-20T09:35:58.747Z,93.74
2022-08-20T09:36:58.755Z,93.85
2022-08-20T09:37:58.965Z,93.70
2022-08-20T09:38:58.712Z,93.70
2022-08-20T09:39:58.754Z,93.19
2022-08-20T09:40:58.720Z,93.80
2022-08-20T09:41:58.660Z,93.90
2022-08-20T09:42:58.989Z,93.80
2022-08-20T09:43:58.667Z,92.83
2022-08-20T09:44:58.618Z,93.34
2022-08-20T09:45:58.612Z,94.25
2022-08-20T09:46:58.596Z,94.35
2022-08-20T09:47:58.681Z,94.45
2022-08-20T09:48:58.570Z,94.55
2022-08-20T09:49:58.560Z,95.01
2022-08-20T09:50:58.541Z,95.01
2022-08-20T09:51:58.549Z,94.71
2022-08-20T09:52:58.536Z,94.20
2022-08-20T09:53:58.501Z,93.65
2022-08-20T09:54:58.493Z,92.94
2022-08-20T09:55:58.486Z,93.04
2022-08-20T09:56:58.492Z,93.54
2022-08-20T09:57:58.579Z,93.44
2022-08-20T09:59:02.655Z,93.34
2022-08-20T09:59:58.434Z,94.05
2022-08-20T10:00:58.429Z,94.35
2022-08-20T10:01:58.569Z,94.60
2022-08-20T10:02:58.383Z,94.71
2022-08-20T10:03:58.370Z,95.21
2022-08-20T10:04:58.372Z,95.51
2022-08-20T10:05:58.391Z,94.91
2022-08-20T10:06:58.347Z,93.90
2022-08-20T10:07:58.622Z,91.58
2022-08-20T10:08:58.311Z,92.79
2022-08-20T10:09:58.297Z,92.39
2022-08-20T10:10:58.304Z,92.59
2022-08-20T10:11:58.266Z,92.49
2022-08-20T10:12:58.277Z,93.50
2022-08-20T10:13:58.235Z,94.00
2022-08-20T10:14:58.218Z,93.30
2022-08-20T10:15:58.214Z,92.39
2022-08-20T10:16:59.260Z,91.99
2022-08-20T10:17:58.438Z,92.59
2022-08-20T10:18:58.213Z,91.78
2022-08-20T10:19:58.159Z,89.97
2022-08-20T10:20:58.138Z,90.07
2022-08-20T10:21:58.154Z,91.49
2022-08-20T10:22:58.122Z,92.59
2022-08-20T10:23:58.101Z,91.28
2022-08-20T10:24:58.090Z,91.58
2022-08-20T10:25:58.077Z,91.49
2022-08-20T10:26:58.084Z,90.17
2022-08-20T10:27:58.295Z,89.67
2022-08-20T10:28:58.032Z,89.77
2022-08-20T10:29:58.022Z,90.07
2022-08-20T10:30:58.042Z,89.67
2022-08-20T10:31:58.003Z,90.28
2022-08-20T10:32:58.014Z,88.96
2022-08-20T10:33:57.991Z,89.41
2022-08-20T10:34:57.957Z,91.02
2022-08-20T10:36:00.073Z,91.33
2022-08-20T10:36:57.932Z,92.59
2022-08-20T10:37:58.142Z,91.99
2022-08-20T10:38:57.925Z,91.69
2022-08-20T10:39:57.962Z,92.99
2022-08-20T10:40:57.872Z,92.79
2022-08-20T10:41:57.887Z,92.49
2022-08-20T10:42:57.844Z,92.49
2022-08-20T10:43:57.875Z,92.99
2022-08-20T10:44:57.821Z,93.19
2022-08-20T10:45:57.812Z,94.00
2022-08-20T10:46:57.827Z,94.60
2022-08-20T10:47:57.988Z,95.01
2022-08-20T10:48:57.800Z,94.40
2022-08-20T10:49:57.761Z,93.30
2022-08-20T10:50:57.742Z,93.10
2022-08-20T10:51:57.744Z,93.10
2022-08-20T10:52:57.727Z,93.76
2022-08-20T10:53:57.734Z,94.46
2022-08-20T10:54:57.699Z,93.55
2022-08-20T10:55:57.684Z,93.46
2022-08-20T10:56:57.666Z,93.55
2022-08-20T10:57:57.893Z,93.55
2022-08-20T10:58:57.656Z,94.46
2022-08-20T10:59:57.648Z,94.96
2022-08-20T11:00:57.611Z,93.96
2022-08-20T11:01:57.777Z,93.46
2022-08-20T11:02:57.604Z,93.55
2022-08-20T11:03:57.567Z,93.66
2022-08-20T11:04:57.557Z,93.26
2022-08-20T11:05:57.660Z,93.46
2022-08-20T11:06:57.531Z,90.73
2022-08-20T11:07:57.559Z,90.33
2022-08-20T11:08:57.535Z,90.84
2022-08-20T11:09:57.542Z,91.54
2022-08-20T11:12:24.450Z,92.55
2022-08-20T11:12:29.346Z,93.35
2022-08-20T11:13:29.353Z,93.66
2022-08-20T11:14:29.314Z,93.35
2022-08-20T11:15:29.322Z,94.06
2022-08-20T11:16:29.301Z,94.36
2022-08-20T11:17:29.285Z,94.01
2022-08-20T11:18:29.293Z,93.51
2022-08-20T11:19:29.292Z,93.41
2022-08-20T11:20:29.258Z,92.30
2022-08-20T11:21:29.222Z,93.11
2022-08-20T11:22:29.224Z,93.81
2022-08-20T11:23:29.188Z,94.12
2022-08-20T11:24:29.208Z,94.42
2022-08-20T11:25:29.173Z,94.21
2022-08-20T11:26:29.969Z,93.61
2022-08-20T11:27:29.162Z,93.41
2022-08-20T11:28:31.392Z,94.12
2022-08-20T11:29:33.433Z,94.92
2022-08-20T11:30:29.100Z,94.62
2022-08-20T11:31:29.098Z,94.07
2022-08-20T11:32:29.073Z,94.07
2022-08-20T11:33:29.087Z,94.07
2022-08-20T11:34:29.041Z,93.46
2022-08-20T11:35:49.585Z,92.16
2022-08-20T11:36:29.039Z,92.16
2022-08-20T11:37:29.039Z,92.06
2022-08-20T11:38:29.005Z,92.16
2022-08-20T11:39:28.979Z,93.37
2022-08-20T11:40:29.047Z,93.27
2022-08-20T11:41:45.795Z,92.22
2022-08-20T11:44:46.546Z,90.11
2022-08-20T11:45:47.510Z,91.21
2022-08-20T11:46:47.501Z,91.17
2022-08-20T11:47:47.517Z,91.67
2022-08-20T11:48:47.475Z,91.47
2022-08-20T11:49:47.497Z,92.07
2022-08-20T11:50:47.439Z,89.06
2022-08-20T11:51:49.596Z,88.65
2022-08-20T11:52:47.430Z,89.11
2022-08-20T11:53:47.427Z,89.31
2022-08-20T11:54:49.937Z,90.32
2022-08-20T11:55:47.397Z,86.80
2022-08-20T11:56:47.363Z,85.60
2022-08-20T11:57:47.378Z,86.00
2022-08-20T11:58:47.344Z,87.01
2022-08-20T11:59:47.330Z,87.41
2022-08-20T12:00:47.360Z,86.20
2022-08-20T12:02:02.293Z,87.06
2022-08-20T12:02:47.378Z,87.66
2022-08-20T12:03:47.263Z,84.59
2022-08-20T12:04:47.296Z,84.80
2022-08-20T12:05:47.237Z,86.00
2022-08-20T12:06:47.255Z,86.20
2022-08-20T12:07:47.261Z,83.99
2022-08-20T12:08:47.230Z,83.09
2022-08-20T12:09:51.161Z,83.18
2022-08-20T12:10:47.191Z,84.89
2022-08-20T12:11:47.218Z,84.99
2022-08-20T12:12:47.196Z,86.10
2022-08-20T12:13:47.857Z,85.80
2022-08-20T12:14:47.121Z,86.60
2022-08-20T12:15:47.280Z,84.80
2022-08-20T12:16:47.107Z,84.80
2022-08-20T12:17:47.083Z,86.20
2022-08-20T12:18:47.151Z,87.71
2022-08-20T12:19:47.054Z,87.06
2022-08-20T12:20:47.040Z,88.67
2022-08-20T12:21:47.014Z,89.27
2022-08-20T12:22:47.026Z,89.87
2022-08-20T12:23:47.041Z,90.12
2022-08-20T12:24:46.990Z,90.62
2022-08-20T12:25:46.977Z,89.92
2022-08-20T12:27:22.415Z,89.62
2022-08-20T12:27:46.937Z,91.13
2022-08-20T12:28:46.937Z,90.62
2022-08-20T12:29:46.973Z,90.52
2022-08-20T12:30:46.909Z,91.08
2022-08-20T12:31:46.892Z,89.67
2022-08-20T12:32:46.879Z,88.87
2022-08-20T12:33:46.903Z,89.78
2022-08-20T12:34:46.882Z,89.98
2022-08-20T12:35:46.841Z,88.97
2022-08-20T12:36:46.823Z,89.58
2022-08-20T12:37:47.133Z,88.67
2022-08-20T12:38:46.805Z,88.97
2022-08-20T12:39:46.935Z,88.87
2022-08-20T12:40:46.777Z,89.27
2022-08-20T12:41:46.749Z,87.87
2022-08-20T12:42:46.798Z,88.67
2022-08-20T12:43:46.735Z,89.27
2022-08-20T12:44:46.740Z,88.17
2022-08-20T12:45:46.698Z,87.66
2022-08-20T12:46:46.689Z,87.06
2022-08-20T12:47:46.696Z,88.31
2022-08-20T12:48:46.680Z,88.91
2022-08-20T12:49:46.652Z,89.72
2022-08-20T12:50:46.668Z,90.52
2022-08-20T12:51:46.624Z,90.82
2022-08-20T12:52:46.626Z,90.42
2022-08-20T12:53:46.594Z,89.78
2022-08-20T12:54:46.583Z,88.61